Cincinnati, Ohio
Traffic Map
Current Weather Conditions
Cincinnati, Ohio
Overcast
Overcast
12°
Feels Like: 12°
Wind Chill: 12° Ceiling: 5500
Heat Index: 12° Visibility: 10mi
Dew Point: Wind: 13mph
Humidity: 66% Direction: 330° (NNW)
Pressure: 30.04in Gusts: 20mph
Raw Report DataKLUK 211453Z 33011G17KT 300V360 10SM OVC055 12/06 A3004 RMK AO2 SLP174 T01170056 51018
Traffic Incident Summary
Active as of:
Severity:
Category:
InformationThere was an issue retrieving the traffic information for this location. Please try a different location or try again shortly.
Advertisements
Track Severe Weather on mobile